sensor_id;sensor_type;location;lat;lon;timestamp;temperature;humidity
72591;SHT31;60625;51.212;5.952;2022-12-13T00:04:34;-2.25;79.26
72591;SHT31;60625;51.212;5.952;2022-12-13T00:09:35;-2.29;79.13
72591;SHT31;60625;51.212;5.952;2022-12-13T00:14:36;-2.37;79.11
72591;SHT31;60625;51.212;5.952;2022-12-13T00:19:37;-2.47;79.40
72591;SHT31;60625;51.212;5.952;2022-12-13T00:24:37;-2.58;79.64
72591;SHT31;60625;51.212;5.952;2022-12-13T00:29:38;-2.57;79.80
72591;SHT31;60625;51.212;5.952;2022-12-13T00:34:39;-2.41;79.61
72591;SHT31;60625;51.212;5.952;2022-12-13T00:39:39;-2.27;79.06
72591;SHT31;60625;51.212;5.952;2022-12-13T00:44:40;-2.25;78.81
72591;SHT31;60625;51.212;5.952;2022-12-13T00:49:40;-2.31;79.02
72591;SHT31;60625;51.212;5.952;2022-12-13T00:54:41;-2.40;79.22
72591;SHT31;60625;51.212;5.952;2022-12-13T00:59:41;-2.59;79.46
72591;SHT31;60625;51.212;5.952;2022-12-13T01:04:41;-2.75;79.87
72591;SHT31;60625;51.212;5.952;2022-12-13T01:09:42;-2.89;80.04
72591;SHT31;60625;51.212;5.952;2022-12-13T01:14:42;-2.94;80.52
72591;SHT31;60625;51.212;5.952;2022-12-13T01:19:43;-2.80;80.33
72591;SHT31;60625;51.212;5.952;2022-12-13T01:24:43;-2.67;79.76
72591;SHT31;60625;51.212;5.952;2022-12-13T01:29:44;-2.60;79.25
72591;SHT31;60625;51.212;5.952;2022-12-13T01:34:44;-2.68;79.99
72591;SHT31;60625;51.212;5.952;2022-12-13T01:39:45;-2.78;80.68
72591;SHT31;60625;51.212;5.952;2022-12-13T01:49:55;-2.60;79.64
72591;SHT31;60625;51.212;5.952;2022-12-13T01:55:01;-2.57;79.57
72591;SHT31;60625;51.212;5.952;2022-12-13T02:00:06;-2.57;79.33
72591;SHT31;60625;51.212;5.952;2022-12-13T02:05:10;-2.65;79.18
72591;SHT31;60625;51.212;5.952;2022-12-13T02:10:18;-2.77;79.29
72591;SHT31;60625;51.212;5.952;2022-12-13T02:15:19;-2.93;79.54
72591;SHT31;60625;51.212;5.952;2022-12-13T02:31:27;-3.13;79.60
72591;SHT31;60625;51.212;5.952;2022-12-13T02:41:49;-2.89;79.44
72591;SHT31;60625;51.212;5.952;2022-12-13T02:46:58;-2.85;79.00
72591;SHT31;60625;51.212;5.952;2022-12-13T02:52:05;-2.90;80.08
72591;SHT31;60625;51.212;5.952;2022-12-13T03:13:52;-2.86;82.13
72591;SHT31;60625;51.212;5.952;2022-12-13T03:18:55;-2.81;81.76
72591;SHT31;60625;51.212;5.952;2022-12-13T03:23:59;-2.89;81.64
72591;SHT31;60625;51.212;5.952;2022-12-13T03:29:00;-2.99;81.76
72591;SHT31;60625;51.212;5.952;2022-12-13T03:34:02;-3.03;82.11
72591;SHT31;60625;51.212;5.952;2022-12-13T03:39:02;-3.05;82.37
72591;SHT31;60625;51.212;5.952;2022-12-13T03:44:03;-2.99;82.49
72591;SHT31;60625;51.212;5.952;2022-12-13T03:49:05;-2.83;82.24
72591;SHT31;60625;51.212;5.952;2022-12-13T03:54:05;-2.71;81.38
72591;SHT31;60625;51.212;5.952;2022-12-13T03:59:06;-2.64;81.54
72591;SHT31;60625;51.212;5.952;2022-12-13T04:04:06;-2.66;81.39
72591;SHT31;60625;51.212;5.952;2022-12-13T04:09:07;-2.77;81.71
72591;SHT31;60625;51.212;5.952;2022-12-13T04:14:07;-2.78;82.04
72591;SHT31;60625;51.212;5.952;2022-12-13T04:19:08;-2.72;81.79
72591;SHT31;60625;51.212;5.952;2022-12-13T04:24:08;-2.79;81.70
72591;SHT31;60625;51.212;5.952;2022-12-13T04:29:09;-2.91;81.82
72591;SHT31;60625;51.212;5.952;2022-12-13T04:34:09;-3.04;82.05
72591;SHT31;60625;51.212;5.952;2022-12-13T04:39:10;-3.16;82.38
72591;SHT31;60625;51.212;5.952;2022-12-13T04:44:10;-3.19;82.64
72591;SHT31;60625;51.212;5.952;2022-12-13T04:49:10;-3.20;82.54
72591;SHT31;60625;51.212;5.952;2022-12-13T04:54:11;-3.21;82.43
72591;SHT31;60625;51.212;5.952;2022-12-13T04:59:12;-3.26;82.54
72591;SHT31;60625;51.212;5.952;2022-12-13T05:04:12;-3.33;82.72
72591;SHT31;60625;51.212;5.952;2022-12-13T05:09:13;-3.31;83.14
72591;SHT31;60625;51.212;5.952;2022-12-13T05:14:13;-3.24;83.01
72591;SHT31;60625;51.212;5.952;2022-12-13T05:19:14;-3.20;83.18
72591;SHT31;60625;51.212;5.952;2022-12-13T05:24:15;-3.19;83.08
72591;SHT31;60625;51.212;5.952;2022-12-13T05:29:16;-3.23;82.56
72591;SHT31;60625;51.212;5.952;2022-12-13T05:34:17;-3.16;83.22
72591;SHT31;60625;51.212;5.952;2022-12-13T05:39:18;-3.09;83.65
72591;SHT31;60625;51.212;5.952;2022-12-13T05:44:18;-3.07;83.90
72591;SHT31;60625;51.212;5.952;2022-12-13T05:49:18;-2.97;83.94
72591;SHT31;60625;51.212;5.952;2022-12-13T05:54:19;-2.93;83.81
72591;SHT31;60625;51.212;5.952;2022-12-13T05:59:19;-2.95;83.77
72591;SHT31;60625;51.212;5.952;2022-12-13T06:04:20;-2.94;84.19
72591;SHT31;60625;51.212;5.952;2022-12-13T06:09:20;-2.88;84.07
72591;SHT31;60625;51.212;5.952;2022-12-13T06:14:21;-2.87;83.99
72591;SHT31;60625;51.212;5.952;2022-12-13T06:19:22;-2.90;83.91
72591;SHT31;60625;51.212;5.952;2022-12-13T06:24:23;-2.94;83.70
72591;SHT31;60625;51.212;5.952;2022-12-13T06:29:24;-2.96;83.61
72591;SHT31;60625;51.212;5.952;2022-12-13T06:34:25;-3.02;83.94
72591;SHT31;60625;51.212;5.952;2022-12-13T06:39:27;-3.05;83.90
72591;SHT31;60625;51.212;5.952;2022-12-13T06:44:29;-3.04;83.64
72591;SHT31;60625;51.212;5.952;2022-12-13T06:49:30;-3.09;83.45
72591;SHT31;60625;51.212;5.952;2022-12-13T06:54:30;-3.16;83.82
72591;SHT31;60625;51.212;5.952;2022-12-13T06:59:31;-3.14;84.03
72591;SHT31;60625;51.212;5.952;2022-12-13T07:04:31;-3.10;84.07
72591;SHT31;60625;51.212;5.952;2022-12-13T07:09:32;-3.11;83.83
72591;SHT31;60625;51.212;5.952;2022-12-13T07:14:32;-3.15;83.93
72591;SHT31;60625;51.212;5.952;2022-12-13T07:19:34;-3.16;83.78
72591;SHT31;60625;51.212;5.952;2022-12-13T07:24:34;-3.21;83.64
72591;SHT31;60625;51.212;5.952;2022-12-13T07:29:36;-3.30;83.62
72591;SHT31;60625;51.212;5.952;2022-12-13T07:34:36;-3.34;83.75
72591;SHT31;60625;51.212;5.952;2022-12-13T07:39:37;-3.38;83.66
72591;SHT31;60625;51.212;5.952;2022-12-13T07:44:37;-3.45;83.72
72591;SHT31;60625;51.212;5.952;2022-12-13T07:49:38;-3.48;83.60
72591;SHT31;60625;51.212;5.952;2022-12-13T07:54:39;-3.49;83.96
72591;SHT31;60625;51.212;5.952;2022-12-13T07:59:40;-3.53;84.42
72591;SHT31;60625;51.212;5.952;2022-12-13T08:04:41;-3.54;84.75
72591;SHT31;60625;51.212;5.952;2022-12-13T08:09:42;-3.51;84.58
72591;SHT31;60625;51.212;5.952;2022-12-13T08:14:42;-3.49;84.53
72591;SHT31;60625;51.212;5.952;2022-12-13T08:19:43;-3.41;84.49
72591;SHT31;60625;51.212;5.952;2022-12-13T08:24:43;-3.30;84.13
72591;SHT31;60625;51.212;5.952;2022-12-13T08:29:44;-3.29;84.04
72591;SHT31;60625;51.212;5.952;2022-12-13T08:34:44;-3.25;84.24
72591;SHT31;60625;51.212;5.952;2022-12-13T08:39:45;-3.15;84.17
72591;SHT31;60625;51.212;5.952;2022-12-13T08:44:46;-3.04;84.04
72591;SHT31;60625;51.212;5.952;2022-12-13T08:49:49;-2.96;83.98
72591;SHT31;60625;51.212;5.952;2022-12-13T08:54:49;-2.82;83.78
72591;SHT31;60625;51.212;5.952;2022-12-13T08:59:50;-2.65;83.38
72591;SHT31;60625;51.212;5.952;2022-12-13T09:04:53;-2.56;83.19
72591;SHT31;60625;51.212;5.952;2022-12-13T09:09:53;-2.49;83.24
72591;SHT31;60625;51.212;5.952;2022-12-13T09:14:53;-2.44;83.37
72591;SHT31;60625;51.212;5.952;2022-12-13T09:19:54;-2.27;83.27
72591;SHT31;60625;51.212;5.952;2022-12-13T09:24:54;-2.14;82.97
72591;SHT31;60625;51.212;5.952;2022-12-13T09:29:55;-2.09;82.80
72591;SHT31;60625;51.212;5.952;2022-12-13T09:34:56;-2.10;82.75
72591;SHT31;60625;51.212;5.952;2022-12-13T09:39:56;-2.00;82.63
72591;SHT31;60625;51.212;5.952;2022-12-13T09:44:58;-1.92;82.32
72591;SHT31;60625;51.212;5.952;2022-12-13T09:50:03;-1.85;82.32
72591;SHT31;60625;51.212;5.952;2022-12-13T10:00:32;-1.64;81.60
72591;SHT31;60625;51.212;5.952;2022-12-13T10:05:35;-1.57;81.55
72591;SHT31;60625;51.212;5.952;2022-12-13T10:10:36;-1.49;80.93
72591;SHT31;60625;51.212;5.952;2022-12-13T10:15:37;-1.45;80.61
72591;SHT31;60625;51.212;5.952;2022-12-13T10:20:42;-1.44;80.49
72591;SHT31;60625;51.212;5.952;2022-12-13T10:25:45;-1.31;80.13
72591;SHT31;60625;51.212;5.952;2022-12-13T10:30:54;-1.18;79.92
72591;SHT31;60625;51.212;5.952;2022-12-13T10:41:27;-0.85;79.35
72591;SHT31;60625;51.212;5.952;2022-12-13T10:46:31;-0.70;79.07
72591;SHT31;60625;51.212;5.952;2022-12-13T10:51:36;-0.64;78.68
72591;SHT31;60625;51.212;5.952;2022-12-13T10:56:41;-0.55;78.89
72591;SHT31;60625;51.212;5.952;2022-12-13T11:01:48;-0.48;78.25
72591;SHT31;60625;51.212;5.952;2022-12-13T11:06:49;-0.41;77.39
72591;SHT31;60625;51.212;5.952;2022-12-13T11:11:50;-0.26;77.50
72591;SHT31;60625;51.212;5.952;2022-12-13T11:16:56;-0.14;77.05
72591;SHT31;60625;51.212;5.952;2022-12-13T11:21:59;-0.11;76.82
72591;SHT31;60625;51.212;5.952;2022-12-13T11:27:03;-0.02;76.93
72591;SHT31;60625;51.212;5.952;2022-12-13T11:37:47;0.18;75.91
72591;SHT31;60625;51.212;5.952;2022-12-13T11:43:07;0.37;75.39
72591;SHT31;60625;51.212;5.952;2022-12-13T11:48:28;0.64;74.75
72591;SHT31;60625;51.212;5.952;2022-12-13T11:54:16;0.73;74.61
72591;SHT31;60625;51.212;5.952;2022-12-13T12:04:38;0.68;74.11
72591;SHT31;60625;51.212;5.952;2022-12-13T12:09:58;0.69;74.85
72591;SHT31;60625;51.212;5.952;2022-12-13T12:15:05;0.74;73.58
72591;SHT31;60625;51.212;5.952;2022-12-13T12:20:14;0.84;73.21
72591;SHT31;60625;51.212;5.952;2022-12-13T12:25:42;0.77;72.18
72591;SHT31;60625;51.212;5.952;2022-12-13T12:31:08;0.68;72.45
72591;SHT31;60625;51.212;5.952;2022-12-13T12:41:55;0.79;72.67
72591;SHT31;60625;51.212;5.952;2022-12-13T12:47:29;0.82;73.18
72591;SHT31;60625;51.212;5.952;2022-12-13T12:58:06;0.80;74.57
72591;SHT31;60625;51.212;5.952;2022-12-13T13:03:18;0.81;74.43
72591;SHT31;60625;51.212;5.952;2022-12-13T13:08:31;0.76;74.21
72591;SHT31;60625;51.212;5.952;2022-12-13T13:14:00;0.66;74.51
72591;SHT31;60625;51.212;5.952;2022-12-13T13:24:32;0.59;74.50
72591;SHT31;60625;51.212;5.952;2022-12-13T13:29:34;0.54;74.68
72591;SHT31;60625;51.212;5.952;2022-12-13T13:34:39;0.53;74.82
72591;SHT31;60625;51.212;5.952;2022-12-13T13:56:10;0.48;74.44
72591;SHT31;60625;51.212;5.952;2022-12-13T14:01:54;0.45;74.15
72591;SHT31;60625;51.212;5.952;2022-12-13T14:13:06;0.44;74.67
72591;SHT31;60625;51.212;5.952;2022-12-13T14:19:10;0.39;74.97
72591;SHT31;60625;51.212;5.952;2022-12-13T14:24:49;0.42;75.01
72591;SHT31;60625;51.212;5.952;2022-12-13T14:30:04;0.41;74.88
72591;SHT31;60625;51.212;5.952;2022-12-13T14:35:21;0.34;75.25
72591;SHT31;60625;51.212;5.952;2022-12-13T14:45:37;0.29;75.17
72591;SHT31;60625;51.212;5.952;2022-12-13T14:50:37;0.20;74.79
72591;SHT31;60625;51.212;5.952;2022-12-13T14:55:42;0.18;74.93
72591;SHT31;60625;51.212;5.952;2022-12-13T15:01:03;0.17;74.79
72591;SHT31;60625;51.212;5.952;2022-12-13T15:06:06;0.12;74.65
72591;SHT31;60625;51.212;5.952;2022-12-13T15:11:07;0.14;74.18
72591;SHT31;60625;51.212;5.952;2022-12-13T15:16:13;0.13;74.52
72591;SHT31;60625;51.212;5.952;2022-12-13T15:21:27;0.05;74.34
72591;SHT31;60625;51.212;5.952;2022-12-13T15:26:31;-0.00;74.67
72591;SHT31;60625;51.212;5.952;2022-12-13T15:31:32;-0.01;74.76
72591;SHT31;60625;51.212;5.952;2022-12-13T15:36:35;-0.06;74.64
72591;SHT31;60625;51.212;5.952;2022-12-13T15:41:41;-0.14;74.60
72591;SHT31;60625;51.212;5.952;2022-12-13T15:46:48;-0.15;74.71
72591;SHT31;60625;51.212;5.952;2022-12-13T15:51:58;-0.21;74.57
72591;SHT31;60625;51.212;5.952;2022-12-13T15:57:13;-0.28;74.75
72591;SHT31;60625;51.212;5.952;2022-12-13T16:02:20;-0.31;74.83
72591;SHT31;60625;51.212;5.952;2022-12-13T16:07:28;-0.32;74.61
72591;SHT31;60625;51.212;5.952;2022-12-13T16:12:43;-0.42;74.99
72591;SHT31;60625;51.212;5.952;2022-12-13T16:17:49;-0.49;74.92
72591;SHT31;60625;51.212;5.952;2022-12-13T16:22:54;-0.46;74.53
72591;SHT31;60625;51.212;5.952;2022-12-13T16:27:55;-0.42;74.38
72591;SHT31;60625;51.212;5.952;2022-12-13T16:32:56;-0.43;74.33
72591;SHT31;60625;51.212;5.952;2022-12-13T16:37:57;-0.43;74.24
72591;SHT31;60625;51.212;5.952;2022-12-13T16:42:58;-0.38;73.68
72591;SHT31;60625;51.212;5.952;2022-12-13T16:48:02;-0.35;73.74
72591;SHT31;60625;51.212;5.952;2022-12-13T16:53:04;-0.39;73.81
72591;SHT31;60625;51.212;5.952;2022-12-13T16:58:05;-0.36;73.73
72591;SHT31;60625;51.212;5.952;2022-12-13T17:03:11;-0.34;73.89
72591;SHT31;60625;51.212;5.952;2022-12-13T17:08:13;-0.39;74.00
72591;SHT31;60625;51.212;5.952;2022-12-13T17:13:15;-0.44;74.58
72591;SHT31;60625;51.212;5.952;2022-12-13T17:18:15;-0.46;74.24
72591;SHT31;60625;51.212;5.952;2022-12-13T17:23:17;-0.47;74.63
72591;SHT31;60625;51.212;5.952;2022-12-13T17:28:18;-0.59;74.94
72591;SHT31;60625;51.212;5.952;2022-12-13T17:33:19;-0.67;74.84
72591;SHT31;60625;51.212;5.952;2022-12-13T17:38:19;-0.67;74.93
72591;SHT31;60625;51.212;5.952;2022-12-13T17:43:20;-0.61;74.80
72591;SHT31;60625;51.212;5.952;2022-12-13T17:48:22;-0.59;74.68
72591;SHT31;60625;51.212;5.952;2022-12-13T17:53:22;-0.61;74.75
72591;SHT31;60625;51.212;5.952;2022-12-13T17:58:26;-0.67;74.92
72591;SHT31;60625;51.212;5.952;2022-12-13T18:03:29;-0.65;74.87
72591;SHT31;60625;51.212;5.952;2022-12-13T18:08:29;-0.58;74.30
72591;SHT31;60625;51.212;5.952;2022-12-13T18:13:34;-0.57;74.07
72591;SHT31;60625;51.212;5.952;2022-12-13T18:18:35;-0.59;73.85
72591;SHT31;60625;51.212;5.952;2022-12-13T18:23:37;-0.62;73.89
72591;SHT31;60625;51.212;5.952;2022-12-13T18:28:37;-0.59;73.95
72591;SHT31;60625;51.212;5.952;2022-12-13T18:33:38;-0.57;73.57
72591;SHT31;60625;51.212;5.952;2022-12-13T18:38:40;-0.61;73.93
72591;SHT31;60625;51.212;5.952;2022-12-13T18:43:42;-0.68;73.78
72591;SHT31;60625;51.212;5.952;2022-12-13T18:48:44;-0.64;73.49
72591;SHT31;60625;51.212;5.952;2022-12-13T18:53:44;-0.62;73.76
72591;SHT31;60625;51.212;5.952;2022-12-13T18:58:45;-0.68;74.21
72591;SHT31;60625;51.212;5.952;2022-12-13T19:03:49;-0.71;74.43
72591;SHT31;60625;51.212;5.952;2022-12-13T19:08:51;-0.74;74.69
72591;SHT31;60625;51.212;5.952;2022-12-13T19:13:55;-0.77;74.57
72591;SHT31;60625;51.212;5.952;2022-12-13T19:18:56;-0.82;74.68
72591;SHT31;60625;51.212;5.952;2022-12-13T19:23:57;-0.81;74.79
72591;SHT31;60625;51.212;5.952;2022-12-13T19:28:59;-0.83;74.79
72591;SHT31;60625;51.212;5.952;2022-12-13T19:34:00;-0.90;75.13
72591;SHT31;60625;51.212;5.952;2022-12-13T19:39:01;-0.96;75.33
72591;SHT31;60625;51.212;5.952;2022-12-13T19:44:02;-0.94;75.30
72591;SHT31;60625;51.212;5.952;2022-12-13T19:49:03;-0.96;75.13
72591;SHT31;60625;51.212;5.952;2022-12-13T19:54:04;-0.97;74.82
72591;SHT31;60625;51.212;5.952;2022-12-13T19:59:05;-0.94;74.81
72591;SHT31;60625;51.212;5.952;2022-12-13T20:04:05;-0.96;74.64
72591;SHT31;60625;51.212;5.952;2022-12-13T20:09:05;-0.98;74.82
72591;SHT31;60625;51.212;5.952;2022-12-13T20:14:06;-0.97;74.88
72591;SHT31;60625;51.212;5.952;2022-12-13T20:19:07;-1.00;74.96
72591;SHT31;60625;51.212;5.952;2022-12-13T20:24:10;-1.00;74.72
72591;SHT31;60625;51.212;5.952;2022-12-13T20:29:11;-0.97;74.75
72591;SHT31;60625;51.212;5.952;2022-12-13T20:34:12;-0.98;74.61
72591;SHT31;60625;51.212;5.952;2022-12-13T20:39:13;-1.02;74.29
72591;SHT31;60625;51.212;5.952;2022-12-13T20:44:14;-0.99;73.87
72591;SHT31;60625;51.212;5.952;2022-12-13T20:49:15;-0.97;74.04
72591;SHT31;60625;51.212;5.952;2022-12-13T20:54:15;-1.02;74.38
72591;SHT31;60625;51.212;5.952;2022-12-13T20:59:16;-1.07;74.19
72591;SHT31;60625;51.212;5.952;2022-12-13T21:04:16;-1.09;74.24
72591;SHT31;60625;51.212;5.952;2022-12-13T21:09:17;-1.15;74.01
72591;SHT31;60625;51.212;5.952;2022-12-13T21:14:18;-1.19;74.38
72591;SHT31;60625;51.212;5.952;2022-12-13T21:19:30;-1.18;74.16
72591;SHT31;60625;51.212;5.952;2022-12-13T21:24:31;-1.18;73.64
72591;SHT31;60625;51.212;5.952;2022-12-13T21:29:32;-1.18;73.89
72591;SHT31;60625;51.212;5.952;2022-12-13T21:34:32;-1.16;73.69
72591;SHT31;60625;51.212;5.952;2022-12-13T21:39:33;-1.16;73.58
72591;SHT31;60625;51.212;5.952;2022-12-13T21:44:37;-1.18;73.49
72591;SHT31;60625;51.212;5.952;2022-12-13T21:49:38;-1.14;73.15
72591;SHT31;60625;51.212;5.952;2022-12-13T21:54:38;-1.19;73.35
72591;SHT31;60625;51.212;5.952;2022-12-13T21:59:39;-1.27;73.26
72591;SHT31;60625;51.212;5.952;2022-12-13T22:04:47;-1.25;73.07
72591;SHT31;60625;51.212;5.952;2022-12-13T22:09:52;-1.29;73.25
72591;SHT31;60625;51.212;5.952;2022-12-13T22:14:54;-1.33;73.25
72591;SHT31;60625;51.212;5.952;2022-12-13T22:19:55;-1.28;73.11
72591;SHT31;60625;51.212;5.952;2022-12-13T22:24:55;-1.25;72.89
72591;SHT31;60625;51.212;5.952;2022-12-13T22:29:56;-1.26;72.68
72591;SHT31;60625;51.212;5.952;2022-12-13T22:34:57;-1.26;72.72
72591;SHT31;60625;51.212;5.952;2022-12-13T22:39:58;-1.26;72.44
72591;SHT31;60625;51.212;5.952;2022-12-13T22:44:58;-1.29;72.59
72591;SHT31;60625;51.212;5.952;2022-12-13T22:49:59;-1.33;72.83
72591;SHT31;60625;51.212;5.952;2022-12-13T22:55:00;-1.28;72.81
72591;SHT31;60625;51.212;5.952;2022-12-13T23:00:00;-1.31;72.85
72591;SHT31;60625;51.212;5.952;2022-12-13T23:05:01;-1.36;72.67
72591;SHT31;60625;51.212;5.952;2022-12-13T23:10:02;-1.33;72.60
72591;SHT31;60625;51.212;5.952;2022-12-13T23:15:23;-1.31;72.32
72591;SHT31;60625;51.212;5.952;2022-12-13T23:20:24;-1.35;72.12
72591;SHT31;60625;51.212;5.952;2022-12-13T23:25:25;-1.39;72.01
72591;SHT31;60625;51.212;5.952;2022-12-13T23:30:25;-1.38;72.36
72591;SHT31;60625;51.212;5.952;2022-12-13T23:35:26;-1.30;71.95
72591;SHT31;60625;51.212;5.952;2022-12-13T23:40:27;-1.25;71.69
72591;SHT31;60625;51.212;5.952;2022-12-13T23:45:27;-1.25;71.79
72591;SHT31;60625;51.212;5.952;2022-12-13T23:50:28;-1.29;72.00
72591;SHT31;60625;51.212;5.952;2022-12-13T23:55:29;-1.27;71.90
